sensor_id;sensor_type;location;lat;lon;timestamp;temperature;humidity
10316;DHT22;5203;48.976;8.306;2023-12-07T00:01:40;2.90;99.90
10316;DHT22;5203;48.976;8.306;2023-12-07T00:04:06;3.00;99.90
10316;DHT22;5203;48.976;8.306;2023-12-07T00:06:32;2.90;99.90
10316;DHT22;5203;48.976;8.306;2023-12-07T00:08:57;2.90;99.90
10316;DHT22;5203;48.976;8.306;2023-12-07T00:11:24;3.00;99.90
10316;DHT22;5203;48.976;8.306;2023-12-07T00:13:50;3.00;99.90
10316;DHT22;5203;48.976;8.306;2023-12-07T00:16:15;3.00;99.90
10316;DHT22;5203;48.976;8.306;2023-12-07T00:18:41;3.00;99.90
10316;DHT22;5203;48.976;8.306;2023-12-07T00:21:13;3.00;99.90
10316;DHT22;5203;48.976;8.306;2023-12-07T00:23:38;3.00;99.90
10316;DHT22;5203;48.976;8.306;2023-12-07T00:26:04;3.00;99.90
10316;DHT22;5203;48.976;8.306;2023-12-07T00:28:30;3.00;99.90
10316;DHT22;5203;48.976;8.306;2023-12-07T00:30:56;2.90;99.90
10316;DHT22;5203;48.976;8.306;2023-12-07T00:33:21;2.90;99.90
10316;DHT22;5203;48.976;8.306;2023-12-07T00:35:47;3.00;99.90
10316;DHT22;5203;48.976;8.306;2023-12-07T00:38:13;3.00;99.90
10316;DHT22;5203;48.976;8.306;2023-12-07T00:40:39;3.00;99.90
10316;DHT22;5203;48.976;8.306;2023-12-07T00:43:06;3.00;99.90
10316;DHT22;5203;48.976;8.306;2023-12-07T00:45:32;3.00;99.90
10316;DHT22;5203;48.976;8.306;2023-12-07T00:47:58;3.00;99.90
10316;DHT22;5203;48.976;8.306;2023-12-07T00:50:24;2.90;99.90
10316;DHT22;5203;48.976;8.306;2023-12-07T00:52:49;3.00;99.90
10316;DHT22;5203;48.976;8.306;2023-12-07T00:55:18;2.90;99.90
10316;DHT22;5203;48.976;8.306;2023-12-07T00:57:43;3.00;99.90
10316;DHT22;5203;48.976;8.306;2023-12-07T01:00:09;2.90;99.90
10316;DHT22;5203;48.976;8.306;2023-12-07T01:02:36;2.90;99.90
10316;DHT22;5203;48.976;8.306;2023-12-07T01:05:01;3.00;99.90
10316;DHT22;5203;48.976;8.306;2023-12-07T01:07:27;2.90;99.90
10316;DHT22;5203;48.976;8.306;2023-12-07T01:09:53;2.90;99.90
10316;DHT22;5203;48.976;8.306;2023-12-07T01:12:19;2.90;99.90
10316;DHT22;5203;48.976;8.306;2023-12-07T01:14:48;3.00;99.90
10316;DHT22;5203;48.976;8.306;2023-12-07T01:17:13;3.00;99.90
10316;DHT22;5203;48.976;8.306;2023-12-07T01:19:39;3.00;99.90
10316;DHT22;5203;48.976;8.306;2023-12-07T01:22:08;2.90;99.90
10316;DHT22;5203;48.976;8.306;2023-12-07T01:24:33;2.90;99.90
10316;DHT22;5203;48.976;8.306;2023-12-07T01:26:59;2.80;99.90
10316;DHT22;5203;48.976;8.306;2023-12-07T01:29:24;2.80;99.90
10316;DHT22;5203;48.976;8.306;2023-12-07T01:31:50;2.80;99.90
10316;DHT22;5203;48.976;8.306;2023-12-07T01:34:17;2.70;99.90
10316;DHT22;5203;48.976;8.306;2023-12-07T01:36:43;2.60;99.90
10316;DHT22;5203;48.976;8.306;2023-12-07T01:39:09;2.60;99.90
10316;DHT22;5203;48.976;8.306;2023-12-07T01:41:40;2.60;99.90
10316;DHT22;5203;48.976;8.306;2023-12-07T01:44:06;2.60;99.90
10316;DHT22;5203;48.976;8.306;2023-12-07T01:46:32;2.60;99.90
10316;DHT22;5203;48.976;8.306;2023-12-07T01:48:59;2.60;99.90
10316;DHT22;5203;48.976;8.306;2023-12-07T01:51:25;2.60;99.90
10316;DHT22;5203;48.976;8.306;2023-12-07T01:53:52;2.60;99.90
10316;DHT22;5203;48.976;8.306;2023-12-07T01:56:17;2.60;99.90
10316;DHT22;5203;48.976;8.306;2023-12-07T01:58:43;2.50;99.90
10316;DHT22;5203;48.976;8.306;2023-12-07T02:01:09;2.50;99.90
10316;DHT22;5203;48.976;8.306;2023-12-07T02:03:39;2.50;99.90
10316;DHT22;5203;48.976;8.306;2023-12-07T02:06:05;2.50;99.90
10316;DHT22;5203;48.976;8.306;2023-12-07T02:08:31;2.40;99.90
10316;DHT22;5203;48.976;8.306;2023-12-07T02:10:57;2.40;99.90
10316;DHT22;5203;48.976;8.306;2023-12-07T02:13:25;2.40;99.90
10316;DHT22;5203;48.976;8.306;2023-12-07T02:15:52;2.40;99.90
10316;DHT22;5203;48.976;8.306;2023-12-07T02:18:33;2.30;99.90
10316;DHT22;5203;48.976;8.306;2023-12-07T02:21:20;2.30;99.90
10316;DHT22;5203;48.976;8.306;2023-12-07T02:23:51;2.30;99.90
10316;DHT22;5203;48.976;8.306;2023-12-07T02:26:20;2.20;99.90
10316;DHT22;5203;48.976;8.306;2023-12-07T02:28:47;2.10;99.90
10316;DHT22;5203;48.976;8.306;2023-12-07T02:31:13;2.10;99.90
10316;DHT22;5203;48.976;8.306;2023-12-07T02:33:39;2.00;99.90
10316;DHT22;5203;48.976;8.306;2023-12-07T02:36:05;1.90;99.90
10316;DHT22;5203;48.976;8.306;2023-12-07T02:38:31;1.80;99.90
10316;DHT22;5203;48.976;8.306;2023-12-07T02:40:59;1.70;99.90
10316;DHT22;5203;48.976;8.306;2023-12-07T02:43:28;1.80;99.90
10316;DHT22;5203;48.976;8.306;2023-12-07T02:45:54;1.70;99.90
10316;DHT22;5203;48.976;8.306;2023-12-07T02:48:21;1.60;99.90
10316;DHT22;5203;48.976;8.306;2023-12-07T02:50:46;1.50;99.90
10316;DHT22;5203;48.976;8.306;2023-12-07T02:53:12;1.60;99.90
10316;DHT22;5203;48.976;8.306;2023-12-07T02:55:41;1.40;99.90
10316;DHT22;5203;48.976;8.306;2023-12-07T02:58:07;1.40;99.90
10316;DHT22;5203;48.976;8.306;2023-12-07T03:00:32;1.30;99.90
10316;DHT22;5203;48.976;8.306;2023-12-07T03:02:58;1.30;99.90
10316;DHT22;5203;48.976;8.306;2023-12-07T03:05:24;1.30;99.90
10316;DHT22;5203;48.976;8.306;2023-12-07T03:07:49;1.20;99.90
10316;DHT22;5203;48.976;8.306;2023-12-07T03:10:15;1.30;99.90
10316;DHT22;5203;48.976;8.306;2023-12-07T03:12:40;1.20;99.90
10316;DHT22;5203;48.976;8.306;2023-12-07T03:15:06;1.20;99.90
10316;DHT22;5203;48.976;8.306;2023-12-07T03:17:32;1.20;99.90
10316;DHT22;5203;48.976;8.306;2023-12-07T03:19:58;1.20;99.90
10316;DHT22;5203;48.976;8.306;2023-12-07T03:22:23;1.10;99.90
10316;DHT22;5203;48.976;8.306;2023-12-07T03:24:51;1.10;99.90
10316;DHT22;5203;48.976;8.306;2023-12-07T03:27:17;1.10;99.90
10316;DHT22;5203;48.976;8.306;2023-12-07T03:29:43;1.10;99.90
10316;DHT22;5203;48.976;8.306;2023-12-07T03:32:08;1.10;99.90
10316;DHT22;5203;48.976;8.306;2023-12-07T03:34:34;1.00;99.90
10316;DHT22;5203;48.976;8.306;2023-12-07T03:36:59;1.00;99.90
10316;DHT22;5203;48.976;8.306;2023-12-07T03:39:25;1.00;99.90
10316;DHT22;5203;48.976;8.306;2023-12-07T03:41:51;0.90;99.90
10316;DHT22;5203;48.976;8.306;2023-12-07T03:44:17;0.90;99.90
10316;DHT22;5203;48.976;8.306;2023-12-07T03:46:43;0.80;99.90
10316;DHT22;5203;48.976;8.306;2023-12-07T03:49:08;0.80;99.90
10316;DHT22;5203;48.976;8.306;2023-12-07T03:51:34;0.80;99.90
10316;DHT22;5203;48.976;8.306;2023-12-07T03:54:03;0.80;99.90
10316;DHT22;5203;48.976;8.306;2023-12-07T03:56:30;0.70;99.90
10316;DHT22;5203;48.976;8.306;2023-12-07T03:58:56;0.70;99.90
10316;DHT22;5203;48.976;8.306;2023-12-07T04:01:27;0.60;99.90
10316;DHT22;5203;48.976;8.306;2023-12-07T04:03:56;0.60;99.90
10316;DHT22;5203;48.976;8.306;2023-12-07T04:06:25;0.60;99.90
10316;DHT22;5203;48.976;8.306;2023-12-07T04:08:50;0.60;99.90
10316;DHT22;5203;48.976;8.306;2023-12-07T04:11:17;0.50;99.90
10316;DHT22;5203;48.976;8.306;2023-12-07T04:13:43;0.40;99.90
10316;DHT22;5203;48.976;8.306;2023-12-07T04:16:09;0.40;99.90
10316;DHT22;5203;48.976;8.306;2023-12-07T04:18:35;0.30;99.90
10316;DHT22;5203;48.976;8.306;2023-12-07T04:21:02;0.30;99.90
10316;DHT22;5203;48.976;8.306;2023-12-07T04:23:28;0.20;99.90
10316;DHT22;5203;48.976;8.306;2023-12-07T04:25:56;0.20;99.90
10316;DHT22;5203;48.976;8.306;2023-12-07T04:28:22;0.20;99.90
10316;DHT22;5203;48.976;8.306;2023-12-07T04:30:48;0.10;99.90
10316;DHT22;5203;48.976;8.306;2023-12-07T04:33:14;0.10;99.90
10316;DHT22;5203;48.976;8.306;2023-12-07T04:35:39;0.10;99.90
10316;DHT22;5203;48.976;8.306;2023-12-07T04:38:07;0.10;99.90
10316;DHT22;5203;48.976;8.306;2023-12-07T04:40:33;0.10;99.90
10316;DHT22;5203;48.976;8.306;2023-12-07T04:42:59;0.10;99.90
10316;DHT22;5203;48.976;8.306;2023-12-07T04:45:28;0.00;99.90
10316;DHT22;5203;48.976;8.306;2023-12-07T04:47:58;0.10;99.90
10316;DHT22;5203;48.976;8.306;2023-12-07T04:50:25;0.00;99.90
10316;DHT22;5203;48.976;8.306;2023-12-07T04:52:51;0.10;99.90
10316;DHT22;5203;48.976;8.306;2023-12-07T04:55:17;0.10;99.90
10316;DHT22;5203;48.976;8.306;2023-12-07T04:57:42;0.00;99.90
10316;DHT22;5203;48.976;8.306;2023-12-07T05:00:08;0.00;99.90
10316;DHT22;5203;48.976;8.306;2023-12-07T05:02:38;-0.10;99.90
10316;DHT22;5203;48.976;8.306;2023-12-07T05:05:05;-0.10;99.90
10316;DHT22;5203;48.976;8.306;2023-12-07T05:07:30;0.00;99.90
10316;DHT22;5203;48.976;8.306;2023-12-07T05:09:56;0.00;99.90
10316;DHT22;5203;48.976;8.306;2023-12-07T05:12:21;0.00;99.90
10316;DHT22;5203;48.976;8.306;2023-12-07T05:14:50;0.00;99.90
10316;DHT22;5203;48.976;8.306;2023-12-07T05:17:18;0.00;99.90
10316;DHT22;5203;48.976;8.306;2023-12-07T05:19:44;0.00;99.90
10316;DHT22;5203;48.976;8.306;2023-12-07T05:22:14;0.10;99.90
10316;DHT22;5203;48.976;8.306;2023-12-07T05:24:49;0.10;99.90
10316;DHT22;5203;48.976;8.306;2023-12-07T05:27:15;0.10;99.90
10316;DHT22;5203;48.976;8.306;2023-12-07T05:29:41;0.10;99.90
10316;DHT22;5203;48.976;8.306;2023-12-07T05:32:06;0.00;99.90
10316;DHT22;5203;48.976;8.306;2023-12-07T05:34:33;-0.10;99.90
10316;DHT22;5203;48.976;8.306;2023-12-07T05:37:00;-0.10;99.90
10316;DHT22;5203;48.976;8.306;2023-12-07T05:39:26;-0.10;99.90
10316;DHT22;5203;48.976;8.306;2023-12-07T05:41:55;-0.10;99.90
10316;DHT22;5203;48.976;8.306;2023-12-07T05:44:21;-0.10;99.90
10316;DHT22;5203;48.976;8.306;2023-12-07T05:46:48;-0.10;99.90
10316;DHT22;5203;48.976;8.306;2023-12-07T05:49:14;-0.20;99.90
10316;DHT22;5203;48.976;8.306;2023-12-07T05:51:42;-0.20;99.90
10316;DHT22;5203;48.976;8.306;2023-12-07T05:54:08;-0.30;99.90
10316;DHT22;5203;48.976;8.306;2023-12-07T05:56:34;-0.40;99.90
10316;DHT22;5203;48.976;8.306;2023-12-07T05:58:59;-0.40;99.90
10316;DHT22;5203;48.976;8.306;2023-12-07T06:01:25;-0.50;99.90
10316;DHT22;5203;48.976;8.306;2023-12-07T06:03:50;-0.50;99.90
10316;DHT22;5203;48.976;8.306;2023-12-07T06:06:18;-0.60;99.90
10316;DHT22;5203;48.976;8.306;2023-12-07T06:08:47;-0.60;99.90
10316;DHT22;5203;48.976;8.306;2023-12-07T06:11:13;-0.60;99.90
10316;DHT22;5203;48.976;8.306;2023-12-07T06:13:38;-0.70;99.90
10316;DHT22;5203;48.976;8.306;2023-12-07T06:16:04;-0.70;99.90
10316;DHT22;5203;48.976;8.306;2023-12-07T06:18:30;-0.80;99.90
10316;DHT22;5203;48.976;8.306;2023-12-07T06:20:56;-0.70;99.90
10316;DHT22;5203;48.976;8.306;2023-12-07T06:23:24;-0.40;99.90
10316;DHT22;5203;48.976;8.306;2023-12-07T06:25:50;-0.40;99.90
10316;DHT22;5203;48.976;8.306;2023-12-07T06:28:16;-0.40;99.90
10316;DHT22;5203;48.976;8.306;2023-12-07T06:30:42;-0.40;99.90
10316;DHT22;5203;48.976;8.306;2023-12-07T06:33:07;-0.40;99.90
10316;DHT22;5203;48.976;8.306;2023-12-07T06:35:34;-0.40;99.90
10316;DHT22;5203;48.976;8.306;2023-12-07T06:38:03;-0.30;99.90
10316;DHT22;5203;48.976;8.306;2023-12-07T06:40:28;-0.20;99.90
10316;DHT22;5203;48.976;8.306;2023-12-07T06:42:54;-0.10;99.90
10316;DHT22;5203;48.976;8.306;2023-12-07T06:45:20;-0.20;99.90
10316;DHT22;5203;48.976;8.306;2023-12-07T06:47:45;-0.10;99.90
10316;DHT22;5203;48.976;8.306;2023-12-07T06:50:11;-0.20;99.90
10316;DHT22;5203;48.976;8.306;2023-12-07T06:52:46;-0.30;99.90
10316;DHT22;5203;48.976;8.306;2023-12-07T06:55:12;-0.40;99.90
10316;DHT22;5203;48.976;8.306;2023-12-07T06:57:38;-0.40;99.90
10316;DHT22;5203;48.976;8.306;2023-12-07T07:00:07;-0.40;99.90
10316;DHT22;5203;48.976;8.306;2023-12-07T07:02:39;-0.60;99.90
10316;DHT22;5203;48.976;8.306;2023-12-07T07:05:05;-0.60;99.90
10316;DHT22;5203;48.976;8.306;2023-12-07T07:07:31;-0.70;99.90
10316;DHT22;5203;48.976;8.306;2023-12-07T07:09:57;-0.80;99.90
10316;DHT22;5203;48.976;8.306;2023-12-07T07:12:23;-0.80;99.90
10316;DHT22;5203;48.976;8.306;2023-12-07T07:14:49;-0.90;99.90
10316;DHT22;5203;48.976;8.306;2023-12-07T07:17:17;-0.90;99.90
10316;DHT22;5203;48.976;8.306;2023-12-07T07:19:43;-0.80;99.90
10316;DHT22;5203;48.976;8.306;2023-12-07T07:22:12;-0.90;99.90
10316;DHT22;5203;48.976;8.306;2023-12-07T07:24:40;-0.90;99.90
10316;DHT22;5203;48.976;8.306;2023-12-07T07:27:06;-0.90;99.90
10316;DHT22;5203;48.976;8.306;2023-12-07T07:29:31;-0.90;99.90
10316;DHT22;5203;48.976;8.306;2023-12-07T07:31:57;-1.00;99.90
10316;DHT22;5203;48.976;8.306;2023-12-07T07:34:23;-1.00;99.90
10316;DHT22;5203;48.976;8.306;2023-12-07T07:36:50;-1.00;99.90
10316;DHT22;5203;48.976;8.306;2023-12-07T07:39:16;-1.00;99.90
10316;DHT22;5203;48.976;8.306;2023-12-07T07:41:41;-1.00;99.90
10316;DHT22;5203;48.976;8.306;2023-12-07T07:44:07;-1.10;99.90
10316;DHT22;5203;48.976;8.306;2023-12-07T07:46:33;-1.00;99.90
10316;DHT22;5203;48.976;8.306;2023-12-07T07:48:58;-1.00;99.90
10316;DHT22;5203;48.976;8.306;2023-12-07T07:51:24;-1.00;99.90
10316;DHT22;5203;48.976;8.306;2023-12-07T07:53:50;-1.00;99.90
10316;DHT22;5203;48.976;8.306;2023-12-07T07:56:18;-1.10;99.90
10316;DHT22;5203;48.976;8.306;2023-12-07T07:58:44;-1.00;99.90
10316;DHT22;5203;48.976;8.306;2023-12-07T08:01:09;-1.00;99.90
10316;DHT22;5203;48.976;8.306;2023-12-07T08:03:35;-0.90;99.90
10316;DHT22;5203;48.976;8.306;2023-12-07T08:06:01;-0.90;99.90
10316;DHT22;5203;48.976;8.306;2023-12-07T08:08:27;-0.90;99.90
10316;DHT22;5203;48.976;8.306;2023-12-07T08:10:52;-0.80;99.90
10316;DHT22;5203;48.976;8.306;2023-12-07T08:13:18;-0.70;99.90
10316;DHT22;5203;48.976;8.306;2023-12-07T08:15:44;-0.70;99.90
10316;DHT22;5203;48.976;8.306;2023-12-07T08:18:09;-0.60;99.90
10316;DHT22;5203;48.976;8.306;2023-12-07T08:20:35;-0.60;99.90
10316;DHT22;5203;48.976;8.306;2023-12-07T08:23:01;-0.60;99.90
10316;DHT22;5203;48.976;8.306;2023-12-07T08:25:27;-0.60;99.90
10316;DHT22;5203;48.976;8.306;2023-12-07T08:27:52;-0.50;99.90
10316;DHT22;5203;48.976;8.306;2023-12-07T08:30:18;-0.40;99.90
10316;DHT22;5203;48.976;8.306;2023-12-07T08:32:45;-0.40;99.90
10316;DHT22;5203;48.976;8.306;2023-12-07T08:35:13;-0.40;99.90
10316;DHT22;5203;48.976;8.306;2023-12-07T08:37:38;-0.30;99.90
10316;DHT22;5203;48.976;8.306;2023-12-07T08:40:05;-0.30;99.90
10316;DHT22;5203;48.976;8.306;2023-12-07T08:42:31;-0.30;99.90
10316;DHT22;5203;48.976;8.306;2023-12-07T08:44:57;-0.20;99.90
10316;DHT22;5203;48.976;8.306;2023-12-07T08:47:23;-0.10;99.90
10316;DHT22;5203;48.976;8.306;2023-12-07T08:49:49;0.00;99.90
10316;DHT22;5203;48.976;8.306;2023-12-07T08:52:16;0.10;99.90
10316;DHT22;5203;48.976;8.306;2023-12-07T08:54:43;0.20;99.90
10316;DHT22;5203;48.976;8.306;2023-12-07T08:57:09;0.30;99.90
10316;DHT22;5203;48.976;8.306;2023-12-07T08:59:34;0.30;99.90
10316;DHT22;5203;48.976;8.306;2023-12-07T09:02:00;0.30;99.90
10316;DHT22;5203;48.976;8.306;2023-12-07T09:04:27;0.30;99.90
10316;DHT22;5203;48.976;8.306;2023-12-07T09:06:52;0.30;99.90
10316;DHT22;5203;48.976;8.306;2023-12-07T09:09:19;0.30;99.90
10316;DHT22;5203;48.976;8.306;2023-12-07T09:11:45;0.30;99.90
10316;DHT22;5203;48.976;8.306;2023-12-07T09:14:10;0.30;99.90
10316;DHT22;5203;48.976;8.306;2023-12-07T09:16:43;0.50;99.90
10316;DHT22;5203;48.976;8.306;2023-12-07T09:19:09;0.50;99.90
10316;DHT22;5203;48.976;8.306;2023-12-07T09:21:34;0.60;99.90
10316;DHT22;5203;48.976;8.306;2023-12-07T09:24:01;0.70;99.90
10316;DHT22;5203;48.976;8.306;2023-12-07T09:26:27;0.90;99.90
10316;DHT22;5203;48.976;8.306;2023-12-07T09:28:53;0.90;99.90
10316;DHT22;5203;48.976;8.306;2023-12-07T09:31:18;1.00;99.90
10316;DHT22;5203;48.976;8.306;2023-12-07T09:33:44;1.10;99.90
10316;DHT22;5203;48.976;8.306;2023-12-07T09:36:10;1.20;99.90
10316;DHT22;5203;48.976;8.306;2023-12-07T09:38:37;1.30;99.90
10316;DHT22;5203;48.976;8.306;2023-12-07T09:41:03;1.30;99.90
10316;DHT22;5203;48.976;8.306;2023-12-07T09:43:29;1.40;99.90
10316;DHT22;5203;48.976;8.306;2023-12-07T09:45:55;1.40;99.90
10316;DHT22;5203;48.976;8.306;2023-12-07T09:48:23;1.50;99.90
10316;DHT22;5203;48.976;8.306;2023-12-07T09:50:49;1.60;99.90
10316;DHT22;5203;48.976;8.306;2023-12-07T09:53:15;1.80;99.90
10316;DHT22;5203;48.976;8.306;2023-12-07T09:55:40;1.90;99.90
10316;DHT22;5203;48.976;8.306;2023-12-07T09:58:06;2.00;99.90
10316;DHT22;5203;48.976;8.306;2023-12-07T10:00:32;2.10;99.90
10316;DHT22;5203;48.976;8.306;2023-12-07T10:02:58;2.30;99.90
10316;DHT22;5203;48.976;8.306;2023-12-07T10:05:24;2.40;99.90
10316;DHT22;5203;48.976;8.306;2023-12-07T10:07:50;2.50;99.90
10316;DHT22;5203;48.976;8.306;2023-12-07T10:10:17;2.60;99.90
10316;DHT22;5203;48.976;8.306;2023-12-07T10:13:01;2.80;99.90
10316;DHT22;5203;48.976;8.306;2023-12-07T10:15:26;3.00;99.90
10316;DHT22;5203;48.976;8.306;2023-12-07T10:17:58;3.20;99.90
10316;DHT22;5203;48.976;8.306;2023-12-07T10:20:26;3.30;99.90
10316;DHT22;5203;48.976;8.306;2023-12-07T10:23:05;3.60;99.90
10316;DHT22;5203;48.976;8.306;2023-12-07T10:25:42;3.70;99.90
10316;DHT22;5203;48.976;8.306;2023-12-07T10:28:08;3.80;99.90
10316;DHT22;5203;48.976;8.306;2023-12-07T10:30:37;4.00;99.90
10316;DHT22;5203;48.976;8.306;2023-12-07T10:33:07;4.10;99.90
10316;DHT22;5203;48.976;8.306;2023-12-07T10:35:33;4.20;99.90
10316;DHT22;5203;48.976;8.306;2023-12-07T10:38:02;4.30;99.30
10316;DHT22;5203;48.976;8.306;2023-12-07T10:40:27;4.60;99.70
10316;DHT22;5203;48.976;8.306;2023-12-07T10:42:57;4.80;98.50
10316;DHT22;5203;48.976;8.306;2023-12-07T10:45:25;5.00;96.90
10316;DHT22;5203;48.976;8.306;2023-12-07T10:47:51;5.10;94.20
10316;DHT22;5203;48.976;8.306;2023-12-07T10:50:23;5.10;92.90
10316;DHT22;5203;48.976;8.306;2023-12-07T10:52:54;5.20;92.60
10316;DHT22;5203;48.976;8.306;2023-12-07T10:55:28;5.40;91.40
10316;DHT22;5203;48.976;8.306;2023-12-07T10:57:55;5.50;90.00
10316;DHT22;5203;48.976;8.306;2023-12-07T11:00:24;5.60;88.60
10316;DHT22;5203;48.976;8.306;2023-12-07T11:02:53;5.70;88.50
10316;DHT22;5203;48.976;8.306;2023-12-07T11:05:19;6.00;88.80
10316;DHT22;5203;48.976;8.306;2023-12-07T11:10:30;6.10;86.40
10316;DHT22;5203;48.976;8.306;2023-12-07T11:13:52;6.10;87.40
10316;DHT22;5203;48.976;8.306;2023-12-07T11:15:57;6.60;87.10
10316;DHT22;5203;48.976;8.306;2023-12-07T11:18:25;7.00;84.30
10316;DHT22;5203;48.976;8.306;2023-12-07T11:20:55;7.50;81.40
10316;DHT22;5203;48.976;8.306;2023-12-07T11:23:21;7.80;80.50
10316;DHT22;5203;48.976;8.306;2023-12-07T11:25:48;8.10;74.60
10316;DHT22;5203;48.976;8.306;2023-12-07T11:28:15;8.30;74.90
10316;DHT22;5203;48.976;8.306;2023-12-07T11:30:47;8.40;74.40
10316;DHT22;5203;48.976;8.306;2023-12-07T11:33:19;8.60;72.70
10316;DHT22;5203;48.976;8.306;2023-12-07T11:36:04;8.50;72.90
10316;DHT22;5203;48.976;8.306;2023-12-07T11:38:30;8.40;70.80
10316;DHT22;5203;48.976;8.306;2023-12-07T11:40:56;8.30;73.90
10316;DHT22;5203;48.976;8.306;2023-12-07T11:46:09;8.00;82.20
10316;DHT22;5203;48.976;8.306;2023-12-07T11:48:34;8.10;82.00
10316;DHT22;5203;48.976;8.306;2023-12-07T11:51:01;8.10;81.40
10316;DHT22;5203;48.976;8.306;2023-12-07T11:53:29;8.40;82.30
10316;DHT22;5203;48.976;8.306;2023-12-07T11:56:16;8.90;78.10
10316;DHT22;5203;48.976;8.306;2023-12-07T11:58:45;9.20;78.50
10316;DHT22;5203;48.976;8.306;2023-12-07T12:01:11;9.60;75.70
10316;DHT22;5203;48.976;8.306;2023-12-07T12:03:39;10.10;74.90
10316;DHT22;5203;48.976;8.306;2023-12-07T12:06:05;10.30;73.20
10316;DHT22;5203;48.976;8.306;2023-12-07T12:08:33;9.40;76.40
10316;DHT22;5203;48.976;8.306;2023-12-07T12:10:59;9.30;76.80
10316;DHT22;5203;48.976;8.306;2023-12-07T12:13:33;9.40;77.30
10316;DHT22;5203;48.976;8.306;2023-12-07T12:16:00;9.20;76.70
10316;DHT22;5203;48.976;8.306;2023-12-07T12:18:26;9.40;75.40
10316;DHT22;5203;48.976;8.306;2023-12-07T12:20:53;9.60;75.10
10316;DHT22;5203;48.976;8.306;2023-12-07T12:23:19;9.70;73.30
10316;DHT22;5203;48.976;8.306;2023-12-07T12:25:46;9.90;72.60
10316;DHT22;5203;48.976;8.306;2023-12-07T12:28:17;10.50;70.60
10316;DHT22;5203;48.976;8.306;2023-12-07T12:30:44;10.70;69.10
10316;DHT22;5203;48.976;8.306;2023-12-07T12:33:10;11.20;65.40
10316;DHT22;5203;48.976;8.306;2023-12-07T12:35:37;10.90;66.80
10316;DHT22;5203;48.976;8.306;2023-12-07T12:38:11;11.20;65.10
10316;DHT22;5203;48.976;8.306;2023-12-07T12:40:37;11.20;65.90
10316;DHT22;5203;48.976;8.306;2023-12-07T12:43:03;11.30;64.50
10316;DHT22;5203;48.976;8.306;2023-12-07T12:45:30;10.90;57.80
10316;DHT22;5203;48.976;8.306;2023-12-07T12:47:56;10.70;49.80
10316;DHT22;5203;48.976;8.306;2023-12-07T12:50:38;10.10;51.40
10316;DHT22;5203;48.976;8.306;2023-12-07T12:53:09;9.60;51.80
10316;DHT22;5203;48.976;8.306;2023-12-07T12:55:40;9.20;55.90
10316;DHT22;5203;48.976;8.306;2023-12-07T12:58:07;9.00;55.10
10316;DHT22;5203;48.976;8.306;2023-12-07T13:00:34;8.60;54.20
10316;DHT22;5203;48.976;8.306;2023-12-07T13:03:04;8.40;56.10
10316;DHT22;5203;48.976;8.306;2023-12-07T13:05:30;8.30;57.00
10316;DHT22;5203;48.976;8.306;2023-12-07T13:07:58;8.10;57.50
10316;DHT22;5203;48.976;8.306;2023-12-07T13:10:25;8.10;59.00
10316;DHT22;5203;48.976;8.306;2023-12-07T13:12:51;8.10;56.30
10316;DHT22;5203;48.976;8.306;2023-12-07T13:15:16;8.10;57.00
10316;DHT22;5203;48.976;8.306;2023-12-07T13:17:43;8.10;59.60
10316;DHT22;5203;48.976;8.306;2023-12-07T13:20:10;8.10;67.50
10316;DHT22;5203;48.976;8.306;2023-12-07T13:22:42;8.00;61.80
10316;DHT22;5203;48.976;8.306;2023-12-07T13:25:12;7.70;66.40
10316;DHT22;5203;48.976;8.306;2023-12-07T13:27:40;7.20;84.90
10316;DHT22;5203;48.976;8.306;2023-12-07T13:30:06;6.90;90.00
10316;DHT22;5203;48.976;8.306;2023-12-07T13:32:36;6.60;90.90
10316;DHT22;5203;48.976;8.306;2023-12-07T13:35:06;6.00;95.20
10316;DHT22;5203;48.976;8.306;2023-12-07T13:37:33;6.00;96.40
10316;DHT22;5203;48.976;8.306;2023-12-07T13:39:59;5.90;96.10
10316;DHT22;5203;48.976;8.306;2023-12-07T13:42:26;5.90;95.90
10316;DHT22;5203;48.976;8.306;2023-12-07T13:44:57;5.90;96.10
10316;DHT22;5203;48.976;8.306;2023-12-07T13:47:26;5.80;95.90
10316;DHT22;5203;48.976;8.306;2023-12-07T13:50:02;5.70;96.00
10316;DHT22;5203;48.976;8.306;2023-12-07T13:52:29;5.70;96.40
10316;DHT22;5203;48.976;8.306;2023-12-07T13:54:55;5.70;95.80
10316;DHT22;5203;48.976;8.306;2023-12-07T13:57:21;5.60;96.50
10316;DHT22;5203;48.976;8.306;2023-12-07T13:59:51;5.40;98.10
10316;DHT22;5203;48.976;8.306;2023-12-07T14:02:16;5.30;99.20
10316;DHT22;5203;48.976;8.306;2023-12-07T14:04:42;5.20;99.90
10316;DHT22;5203;48.976;8.306;2023-12-07T14:07:12;5.10;99.90
10316;DHT22;5203;48.976;8.306;2023-12-07T14:09:40;5.00;99.90
10316;DHT22;5203;48.976;8.306;2023-12-07T14:12:07;4.90;99.90
10316;DHT22;5203;48.976;8.306;2023-12-07T14:14:34;4.60;99.90
10316;DHT22;5203;48.976;8.306;2023-12-07T14:17:00;4.30;99.90
10316;DHT22;5203;48.976;8.306;2023-12-07T14:19:28;4.30;99.90
10316;DHT22;5203;48.976;8.306;2023-12-07T14:21:57;4.30;99.90
10316;DHT22;5203;48.976;8.306;2023-12-07T14:24:25;4.30;99.90
10316;DHT22;5203;48.976;8.306;2023-12-07T14:26:52;4.20;99.90
10316;DHT22;5203;48.976;8.306;2023-12-07T14:29:18;4.00;99.90
10316;DHT22;5203;48.976;8.306;2023-12-07T14:31:47;3.90;99.90
10316;DHT22;5203;48.976;8.306;2023-12-07T14:34:14;3.70;99.90
10316;DHT22;5203;48.976;8.306;2023-12-07T14:36:41;3.60;99.90
10316;DHT22;5203;48.976;8.306;2023-12-07T14:39:13;3.40;99.90
10316;DHT22;5203;48.976;8.306;2023-12-07T14:41:46;3.30;99.90
10316;DHT22;5203;48.976;8.306;2023-12-07T14:44:16;3.20;99.90
10316;DHT22;5203;48.976;8.306;2023-12-07T14:46:45;3.20;99.90
10316;DHT22;5203;48.976;8.306;2023-12-07T14:49:16;3.20;99.90
10316;DHT22;5203;48.976;8.306;2023-12-07T14:51:47;3.20;99.90
10316;DHT22;5203;48.976;8.306;2023-12-07T14:54:24;3.10;99.90
10316;DHT22;5203;48.976;8.306;2023-12-07T14:56:50;3.10;99.90
10316;DHT22;5203;48.976;8.306;2023-12-07T14:59:23;3.10;99.90
10316;DHT22;5203;48.976;8.306;2023-12-07T15:01:48;3.10;99.90
10316;DHT22;5203;48.976;8.306;2023-12-07T15:04:16;3.00;99.90
10316;DHT22;5203;48.976;8.306;2023-12-07T15:06:44;2.90;99.90
10316;DHT22;5203;48.976;8.306;2023-12-07T15:09:10;2.90;99.90
10316;DHT22;5203;48.976;8.306;2023-12-07T15:11:36;2.90;99.90
10316;DHT22;5203;48.976;8.306;2023-12-07T15:14:02;2.90;99.90
10316;DHT22;5203;48.976;8.306;2023-12-07T15:16:36;2.90;99.90
10316;DHT22;5203;48.976;8.306;2023-12-07T15:19:02;2.90;99.90
10316;DHT22;5203;48.976;8.306;2023-12-07T15:21:28;2.90;99.90
10316;DHT22;5203;48.976;8.306;2023-12-07T15:23:54;2.90;99.90
10316;DHT22;5203;48.976;8.306;2023-12-07T15:26:20;2.80;99.90
10316;DHT22;5203;48.976;8.306;2023-12-07T15:28:46;2.80;99.90
10316;DHT22;5203;48.976;8.306;2023-12-07T15:31:15;2.80;99.90
10316;DHT22;5203;48.976;8.306;2023-12-07T15:33:41;2.80;99.90
10316;DHT22;5203;48.976;8.306;2023-12-07T15:36:12;2.80;99.90
10316;DHT22;5203;48.976;8.306;2023-12-07T15:38:41;2.70;99.90
10316;DHT22;5203;48.976;8.306;2023-12-07T15:41:08;2.70;99.90
10316;DHT22;5203;48.976;8.306;2023-12-07T15:43:34;2.60;99.90
10316;DHT22;5203;48.976;8.306;2023-12-07T15:46:01;2.60;99.90
10316;DHT22;5203;48.976;8.306;2023-12-07T15:48:31;2.50;99.90
10316;DHT22;5203;48.976;8.306;2023-12-07T15:50:59;2.50;99.90
10316;DHT22;5203;48.976;8.306;2023-12-07T15:53:25;2.50;99.90
10316;DHT22;5203;48.976;8.306;2023-12-07T15:55:51;2.50;99.90
10316;DHT22;5203;48.976;8.306;2023-12-07T15:58:16;2.50;99.90
10316;DHT22;5203;48.976;8.306;2023-12-07T16:00:43;2.40;99.90
10316;DHT22;5203;48.976;8.306;2023-12-07T16:03:09;2.40;99.90